createdAt,value
2022-10-22T00:01:35.242Z,27.00
2022-10-22T00:04:13.132Z,25.42
2022-10-22T00:06:49.817Z,27.45
2022-10-22T00:09:26.627Z,26.05
2022-10-22T00:12:02.055Z,26.63
2022-10-22T00:14:38.902Z,35.38
2022-10-22T00:17:15.731Z,18.77
2022-10-22T00:20:00.652Z,21.60
2022-10-22T00:22:43.858Z,22.20
2022-10-22T00:25:20.852Z,29.27
2022-10-22T00:28:05.191Z,20.77
2022-10-22T00:30:59.480Z,21.77
2022-10-22T00:33:39.622Z,21.58
2022-10-22T00:36:21.072Z,22.17
2022-10-22T00:38:57.730Z,22.77
2022-10-22T00:41:36.058Z,23.30
2022-10-22T00:44:54.674Z,16.77
2022-10-22T00:47:32.638Z,16.38
2022-10-22T00:50:09.357Z,18.75
2022-10-22T00:52:51.372Z,18.27
2022-10-22T00:55:28.434Z,20.95
2022-10-22T00:58:05.876Z,19.45
2022-10-22T01:00:42.533Z,22.10
2022-10-22T01:03:18.065Z,22.33
2022-10-22T01:05:59.240Z,21.50
2022-10-22T01:17:26.954Z,27.17
2022-10-22T01:20:16.867Z,27.25
2022-10-22T01:23:02.639Z,26.50
2022-10-22T01:25:43.208Z,30.17
2022-10-22T01:28:27.157Z,22.48
2022-10-22T01:31:07.890Z,27.27
2022-10-22T01:33:44.919Z,24.00
2022-10-22T01:36:21.455Z,25.05
2022-10-22T01:38:58.145Z,28.90
2022-10-22T01:41:34.641Z,27.83
2022-10-22T01:44:10.969Z,25.98
2022-10-22T01:46:52.077Z,26.70
2022-10-22T01:49:38.138Z,22.77
2022-10-22T01:52:27.314Z,26.20
2022-10-22T01:55:10.848Z,28.67
2022-10-22T01:57:55.201Z,28.05
2022-10-22T02:00:30.339Z,26.73
2022-10-22T02:03:21.256Z,25.30
2022-10-22T02:06:03.945Z,26.73
2022-10-22T02:08:41.374Z,30.30
2022-10-22T02:11:19.350Z,29.02
2022-10-22T02:13:54.857Z,31.70
2022-10-22T02:16:36.529Z,28.48
2022-10-22T02:19:20.444Z,33.30
2022-10-22T02:21:57.571Z,32.60
2022-10-22T02:24:33.774Z,35.00
2022-10-22T02:27:17.060Z,30.13
2022-10-22T02:29:59.997Z,32.47
2022-10-22T02:32:42.057Z,32.45
2022-10-22T02:35:23.131Z,30.77
2022-10-22T02:37:59.707Z,30.20
2022-10-22T02:40:36.790Z,34.33
2022-10-22T02:43:13.709Z,31.15
2022-10-22T02:45:51.699Z,27.00
2022-10-22T02:48:47.300Z,30.85
2022-10-22T02:51:25.473Z,31.38
2022-10-22T02:54:00.781Z,29.83
2022-10-22T02:56:36.962Z,36.58
2022-10-22T02:59:12.033Z,31.23
2022-10-22T03:01:47.292Z,29.77
2022-10-22T03:04:23.803Z,32.78
2022-10-22T03:07:02.490Z,35.30
2022-10-22T03:09:37.757Z,32.28
2022-10-22T03:12:13.436Z,32.47
2022-10-22T03:14:48.658Z,29.67
2022-10-22T03:17:24.685Z,26.25
2022-10-22T03:19:59.706Z,33.65
2022-10-22T03:22:39.414Z,30.27
2022-10-22T03:25:18.631Z,33.65
2022-10-22T03:27:56.871Z,32.95
2022-10-22T03:30:32.402Z,29.80
2022-10-22T03:33:08.362Z,33.58
2022-10-22T03:35:48.355Z,31.13
2022-10-22T03:38:25.767Z,33.22
2022-10-22T03:41:02.541Z,29.10
2022-10-22T03:43:38.955Z,31.70
2022-10-22T03:46:14.982Z,29.65
2022-10-22T03:48:53.111Z,35.03
2022-10-22T03:51:33.327Z,36.10
2022-10-22T03:54:14.178Z,34.80
2022-10-22T03:56:51.660Z,31.40
2022-10-22T03:59:27.903Z,38.97
2022-10-22T04:02:02.942Z,38.13
2022-10-22T04:04:42.089Z,39.60
2022-10-22T04:07:17.844Z,40.20
2022-10-22T04:09:54.776Z,37.25
2022-10-22T04:12:35.055Z,32.65
2022-10-22T04:15:12.463Z,37.60
2022-10-22T04:17:48.802Z,34.78
2022-10-22T04:20:24.152Z,33.28
2022-10-22T04:22:59.654Z,32.28
2022-10-22T04:25:42.416Z,30.92
2022-10-22T04:28:17.438Z,35.03
2022-10-22T04:30:53.852Z,34.95
2022-10-22T04:33:29.171Z,31.42
2022-10-22T04:36:13.305Z,25.35
2022-10-22T04:38:49.270Z,29.73
2022-10-22T04:41:30.774Z,29.60
2022-10-22T04:44:11.114Z,32.28
2022-10-22T04:46:51.497Z,28.90
2022-10-22T04:49:30.126Z,27.95
2022-10-22T04:52:05.371Z,33.20
2022-10-22T04:54:42.322Z,25.70
2022-10-22T04:57:19.237Z,33.47
2022-10-22T04:59:55.430Z,29.70
2022-10-22T05:02:30.641Z,28.85
2022-10-22T05:05:07.824Z,25.15
2022-10-22T05:07:43.631Z,30.13
2022-10-22T05:10:19.355Z,29.63
2022-10-22T05:12:56.285Z,27.00
2022-10-22T05:15:31.321Z,35.65
2022-10-22T05:18:10.799Z,37.55
2022-10-22T05:20:46.952Z,34.58
2022-10-22T05:23:21.966Z,31.08
2022-10-22T05:25:57.751Z,33.22
2022-10-22T05:28:37.556Z,30.52
2022-10-22T05:31:19.062Z,28.05
2022-10-22T05:33:57.133Z,33.03
2022-10-22T05:36:32.523Z,28.35
2022-10-22T05:39:08.349Z,35.08
2022-10-22T05:41:44.478Z,30.65
2022-10-22T05:44:21.913Z,28.60
2022-10-22T05:46:57.777Z,32.78
2022-10-22T05:49:33.473Z,35.40
2022-10-22T05:52:08.721Z,31.25
2022-10-22T05:54:44.127Z,34.63
2022-10-22T05:57:20.655Z,35.75
2022-10-22T05:59:59.785Z,33.90
2022-10-22T06:02:35.576Z,38.88
2022-10-22T06:05:12.153Z,30.98
2022-10-22T06:07:47.070Z,30.67
2022-10-22T06:10:22.423Z,34.63
2022-10-22T06:12:56.927Z,34.95
2022-10-22T06:15:34.059Z,34.70
2022-10-22T06:18:12.440Z,42.75
2022-10-22T06:20:49.028Z,37.47
2022-10-22T06:23:24.268Z,30.77
2022-10-22T06:26:06.462Z,38.72
2022-10-22T06:28:42.546Z,40.30
2022-10-22T06:31:26.036Z,37.42
2022-10-22T06:34:03.889Z,44.38
2022-10-22T06:39:18.077Z,39.83
2022-10-22T06:41:52.805Z,39.88
2022-10-22T06:44:30.929Z,42.70
2022-10-22T06:47:11.048Z,39.95
2022-10-22T06:49:47.274Z,41.30
2022-10-22T06:52:22.866Z,36.97
2022-10-22T06:54:57.948Z,39.08
2022-10-22T06:57:34.117Z,46.22
2022-10-22T07:00:10.518Z,38.22
2022-10-22T07:02:47.523Z,41.05
2022-10-22T07:05:23.815Z,39.63
2022-10-22T07:08:03.397Z,43.38
2022-10-22T07:10:38.276Z,38.35
2022-10-22T07:13:13.789Z,40.00
2022-10-22T07:15:48.946Z,40.70
2022-10-22T07:18:25.988Z,42.35
2022-10-22T07:21:01.173Z,42.38
2022-10-22T07:23:36.279Z,33.33
2022-10-22T07:26:13.552Z,44.92
2022-10-22T07:28:51.376Z,37.30
2022-10-22T07:31:28.201Z,40.40
2022-10-22T07:34:10.767Z,43.60
2022-10-22T07:36:48.048Z,33.10
2022-10-22T07:39:23.284Z,39.45
2022-10-22T07:41:58.243Z,41.58
2022-10-22T07:44:34.607Z,35.03
2022-10-22T07:47:10.569Z,47.92
2022-10-22T07:49:51.928Z,40.20
2022-10-22T07:52:28.159Z,38.58
2022-10-22T07:55:03.231Z,39.00
2022-10-22T07:57:38.864Z,48.45
2022-10-22T08:00:16.132Z,35.15
2022-10-22T08:02:53.312Z,41.60
2022-10-22T08:05:30.330Z,41.88
2022-10-22T08:08:05.695Z,42.00
2022-10-22T08:10:41.868Z,43.83
2022-10-22T08:13:17.608Z,41.33
2022-10-22T08:15:56.497Z,43.30
2022-10-22T08:18:33.665Z,51.70
2022-10-22T08:21:12.143Z,41.38
2022-10-22T08:23:48.475Z,44.90
2022-10-22T08:26:24.033Z,46.08
2022-10-22T08:29:04.639Z,37.25
2022-10-22T08:31:39.598Z,43.47
2022-10-22T08:34:15.683Z,42.20
2022-10-22T08:36:53.877Z,44.63
2022-10-22T08:39:30.060Z,46.10
2022-10-22T08:42:13.407Z,45.65
2022-10-22T08:45:12.221Z,43.35
2022-10-22T08:47:54.845Z,37.97
2022-10-22T08:50:35.434Z,39.97
2022-10-22T08:53:35.189Z,41.00
2022-10-22T08:56:13.118Z,33.95
2022-10-22T08:58:56.172Z,41.95
2022-10-22T09:01:37.128Z,42.30
2022-10-22T09:04:18.016Z,45.60
2022-10-22T09:06:53.676Z,42.38
2022-10-22T09:09:35.082Z,37.13
2022-10-22T09:12:10.328Z,37.60
2022-10-22T09:14:46.147Z,43.97
2022-10-22T09:17:29.469Z,38.67
2022-10-22T09:20:14.066Z,38.80
2022-10-22T09:22:56.502Z,43.67
2022-10-22T09:25:35.977Z,38.45
2022-10-22T09:28:13.812Z,36.40
2022-10-22T09:30:49.196Z,38.70
2022-10-22T09:33:32.496Z,40.92
2022-10-22T09:36:09.557Z,41.40
2022-10-22T09:38:45.609Z,43.63
2022-10-22T09:41:23.366Z,45.08
2022-10-22T09:43:58.410Z,39.13
2022-10-22T09:46:34.134Z,36.65
2022-10-22T09:49:11.695Z,44.25
2022-10-22T09:51:54.902Z,35.45
2022-10-22T09:54:42.796Z,38.30
2022-10-22T09:57:25.409Z,35.20
2022-10-22T10:00:01.076Z,42.80
2022-10-22T10:02:47.575Z,36.35
2022-10-22T10:05:32.459Z,36.83
2022-10-22T10:08:17.307Z,35.45
2022-10-22T10:10:55.680Z,31.73
2022-10-22T10:13:46.317Z,35.30
2022-10-22T10:16:42.061Z,34.88
2022-10-22T10:19:26.643Z,33.08
2022-10-22T10:22:09.323Z,41.65
2022-10-22T10:24:58.952Z,34.30
2022-10-22T10:27:39.643Z,38.63
2022-10-22T10:30:21.218Z,29.90
2022-10-22T10:33:05.657Z,33.20
2022-10-22T10:35:44.313Z,32.75
2022-10-22T10:38:41.449Z,36.50
2022-10-22T10:41:23.787Z,31.27
2022-10-22T10:44:26.281Z,31.80
2022-10-22T10:47:14.065Z,36.05
2022-10-22T10:49:50.911Z,33.28
2022-10-22T10:52:27.283Z,33.85
2022-10-22T10:55:10.701Z,30.65
2022-10-22T10:57:53.914Z,35.38
2022-10-22T11:00:31.167Z,36.10
2022-10-22T11:03:17.796Z,32.70
2022-10-22T11:05:53.625Z,36.55
2022-10-22T11:08:37.694Z,33.90
2022-10-22T11:11:19.442Z,37.28
2022-10-22T11:13:57.762Z,36.90
2022-10-22T11:16:36.950Z,35.35
2022-10-22T11:19:23.156Z,34.47
2022-10-22T11:22:14.982Z,44.67
2022-10-22T11:24:56.748Z,38.70
2022-10-22T11:27:35.108Z,38.25
2022-10-22T11:30:17.171Z,42.83
2022-10-22T11:32:57.006Z,32.67
2022-10-22T11:35:36.561Z,45.92
2022-10-22T11:38:14.536Z,41.90
2022-10-22T11:40:52.776Z,37.75
2022-10-22T11:43:37.646Z,40.42
2022-10-22T11:46:32.603Z,37.25
2022-10-22T11:49:23.142Z,38.28
2022-10-22T11:52:10.895Z,37.97
2022-10-22T11:54:49.352Z,32.92
2022-10-22T11:57:30.927Z,38.25
2022-10-22T12:00:11.502Z,37.65
2022-10-22T12:02:50.312Z,32.20
2022-10-22T12:05:43.523Z,33.78
2022-10-22T12:08:32.063Z,37.13
2022-10-22T12:11:18.346Z,32.63
2022-10-22T12:14:16.290Z,30.30
2022-10-22T12:16:56.887Z,35.95
2022-10-22T12:19:35.972Z,40.80
2022-10-22T12:22:16.912Z,36.17
2022-10-22T12:24:54.133Z,36.03
2022-10-22T12:27:29.209Z,33.15
2022-10-22T12:30:07.658Z,34.15
2022-10-22T12:32:45.024Z,35.10
2022-10-22T12:35:21.470Z,34.78
2022-10-22T12:37:56.322Z,37.97
2022-10-22T12:40:33.003Z,34.85
2022-10-22T12:45:46.445Z,33.80
2022-10-22T12:48:23.781Z,34.53
2022-10-22T12:50:58.963Z,31.52
2022-10-22T12:53:34.618Z,37.13
2022-10-22T12:56:15.250Z,35.70
2022-10-22T12:58:56.201Z,38.95
2022-10-22T13:01:34.489Z,36.40
2022-10-22T13:04:12.329Z,34.13
2022-10-22T13:06:49.768Z,38.42
2022-10-22T13:09:27.706Z,44.17
2022-10-22T13:12:09.627Z,32.20
2022-10-22T13:14:49.635Z,32.35
2022-10-22T13:17:26.608Z,40.83
2022-10-22T13:20:06.986Z,38.95
2022-10-22T13:22:42.079Z,41.72
2022-10-22T13:25:27.874Z,34.60
2022-10-22T13:28:04.427Z,35.35
2022-10-22T13:30:41.179Z,39.80
2022-10-22T13:33:27.867Z,36.08
2022-10-22T13:36:03.166Z,44.83
2022-10-22T13:38:37.659Z,34.35
2022-10-22T13:41:23.001Z,41.30
2022-10-22T13:44:00.610Z,41.50
2022-10-22T13:46:44.245Z,31.77
2022-10-22T13:49:20.189Z,33.20
2022-10-22T13:51:55.236Z,38.95
2022-10-22T13:54:30.890Z,30.52
2022-10-22T13:57:05.761Z,30.95
2022-10-22T13:59:46.709Z,39.33
2022-10-22T14:02:21.755Z,41.92
2022-10-22T14:05:04.684Z,36.00
2022-10-22T14:07:39.319Z,48.22
2022-10-22T14:10:23.019Z,42.13
2022-10-22T14:12:57.894Z,38.58
2022-10-22T14:15:34.972Z,46.95
2022-10-22T14:18:10.131Z,49.90
2022-10-22T14:20:45.934Z,44.78
2022-10-22T14:23:20.924Z,42.60
2022-10-22T14:25:56.145Z,38.58
2022-10-22T14:28:34.147Z,38.40
2022-10-22T14:31:17.483Z,38.33
2022-10-22T14:33:52.091Z,35.13
2022-10-22T14:36:26.341Z,36.38
2022-10-22T14:39:00.507Z,29.77
2022-10-22T14:41:34.832Z,27.52
2022-10-22T14:44:09.314Z,29.10
2022-10-22T14:46:45.849Z,27.95
2022-10-22T14:49:20.513Z,26.27
2022-10-22T14:51:55.698Z,36.38
2022-10-22T14:54:31.254Z,29.08
2022-10-22T14:57:07.714Z,24.33
2022-10-22T14:59:41.976Z,25.90
2022-10-22T15:02:19.721Z,23.42
2022-10-22T15:04:54.007Z,29.65
2022-10-22T15:07:29.092Z,27.70
2022-10-22T15:10:03.451Z,29.40
2022-10-22T15:12:38.941Z,24.00
2022-10-22T15:15:15.671Z,32.22
2022-10-22T15:17:54.111Z,29.35
2022-10-22T15:20:32.040Z,33.78
2022-10-22T15:23:08.251Z,33.35
2022-10-22T15:25:42.627Z,32.03
2022-10-22T15:28:17.398Z,29.42
2022-10-22T15:30:57.552Z,29.50
2022-10-22T15:33:36.570Z,37.00
2022-10-22T15:36:18.870Z,34.60
2022-10-22T15:38:53.235Z,36.92
2022-10-22T15:41:28.436Z,35.08
2022-10-22T15:44:05.025Z,39.00
2022-10-22T15:46:40.303Z,37.33
2022-10-22T15:49:19.425Z,36.25
2022-10-22T15:51:56.295Z,25.80
2022-10-22T15:54:34.305Z,34.05
2022-10-22T15:57:10.382Z,35.95
2022-10-22T15:59:48.911Z,30.73
2022-10-22T16:02:24.836Z,42.35
2022-10-22T16:05:02.576Z,33.15
2022-10-22T16:07:40.671Z,39.63
2022-10-22T16:10:16.395Z,29.15
2022-10-22T16:12:53.144Z,28.98
2022-10-22T16:15:28.196Z,27.38
2022-10-22T16:18:05.854Z,24.00
2022-10-22T16:20:46.920Z,23.52
2022-10-22T16:23:25.081Z,22.05
2022-10-22T16:26:00.628Z,22.80
2022-10-22T16:28:38.219Z,25.95
2022-10-22T16:31:15.253Z,19.73
2022-10-22T16:33:50.587Z,20.52
2022-10-22T16:36:26.699Z,22.55
2022-10-22T16:39:01.578Z,17.52
2022-10-22T16:41:38.709Z,19.90
2022-10-22T16:44:14.063Z,21.48
2022-10-22T16:46:48.935Z,17.10
2022-10-22T16:49:23.181Z,16.75
2022-10-22T16:52:00.789Z,24.90
2022-10-22T16:54:35.509Z,26.23
2022-10-22T16:57:09.943Z,27.65
2022-10-22T16:59:44.508Z,30.42
2022-10-22T17:02:19.624Z,17.88
2022-10-22T17:04:55.600Z,23.98
2022-10-22T17:07:31.910Z,22.45
2022-10-22T17:10:06.870Z,23.65
2022-10-22T17:12:41.941Z,22.92
2022-10-22T17:15:19.797Z,23.63
2022-10-22T17:17:55.406Z,21.52
2022-10-22T17:20:29.889Z,22.85
2022-10-22T17:23:08.537Z,33.22
2022-10-22T17:25:48.175Z,25.70
2022-10-22T17:28:22.621Z,29.98
2022-10-22T17:31:06.269Z,26.98
2022-10-22T17:33:41.435Z,28.08
2022-10-22T17:36:15.878Z,32.35
2022-10-22T17:38:53.040Z,25.45
2022-10-22T17:41:31.032Z,30.15
2022-10-22T17:44:07.021Z,35.83
2022-10-22T17:46:46.462Z,30.35
2022-10-22T17:49:22.133Z,32.60
2022-10-22T17:51:56.338Z,36.03
2022-10-22T17:54:34.594Z,27.52
2022-10-22T17:57:09.053Z,30.85
2022-10-22T17:59:44.746Z,36.42
2022-10-22T18:02:20.989Z,36.80
2022-10-22T18:04:56.667Z,30.33
2022-10-22T18:07:31.044Z,28.85
2022-10-22T18:10:07.614Z,32.78
2022-10-22T18:12:41.914Z,26.95
2022-10-22T18:15:16.723Z,24.27
2022-10-22T18:17:52.000Z,19.55
2022-10-22T18:20:29.625Z,19.58
2022-10-22T18:23:05.273Z,18.13
2022-10-22T18:25:43.689Z,14.75
2022-10-22T18:28:18.554Z,15.85
2022-10-22T18:30:53.092Z,10.35
2022-10-22T18:33:27.849Z,13.20
2022-10-22T18:36:02.667Z,10.70
2022-10-22T18:38:40.310Z,11.98
2022-10-22T18:41:18.593Z,12.70
2022-10-22T18:43:55.558Z,17.88
2022-10-22T18:46:30.352Z,19.48
2022-10-22T18:49:05.546Z,19.05
2022-10-22T18:51:40.204Z,19.73
2022-10-22T18:54:24.007Z,24.50
2022-10-22T18:57:03.745Z,23.98
2022-10-22T18:59:37.918Z,19.92
2022-10-22T19:02:14.162Z,18.67
2022-10-22T19:04:48.747Z,16.73
2022-10-22T19:07:23.500Z,22.40
2022-10-22T19:10:00.764Z,19.02
2022-10-22T19:12:38.711Z,18.23
2022-10-22T19:15:15.097Z,23.48
2022-10-22T19:17:49.609Z,20.08
2022-10-22T19:20:24.165Z,18.35
2022-10-22T19:22:58.468Z,22.10
2022-10-22T19:25:33.611Z,20.83
2022-10-22T19:28:12.823Z,18.20
2022-10-22T19:30:47.474Z,15.95
2022-10-22T19:33:22.616Z,16.77
2022-10-22T19:35:57.123Z,13.25
2022-10-22T19:38:31.474Z,15.25
2022-10-22T19:41:06.371Z,20.90
2022-10-22T19:43:42.646Z,19.40
2022-10-22T19:46:17.760Z,16.05
2022-10-22T19:48:54.079Z,20.33
2022-10-22T19:51:29.572Z,17.52
2022-10-22T19:54:04.711Z,14.52
2022-10-22T19:56:40.076Z,13.80
2022-10-22T19:59:17.424Z,17.77
2022-10-22T20:01:52.117Z,15.27
2022-10-22T20:04:29.760Z,17.95
2022-10-22T20:07:04.301Z,12.85
2022-10-22T20:09:38.458Z,18.83
2022-10-22T20:12:13.613Z,15.85
2022-10-22T20:14:49.723Z,15.90
2022-10-22T20:17:24.126Z,14.45
2022-10-22T20:19:58.643Z,14.95
2022-10-22T20:22:33.306Z,9.18
2022-10-22T20:25:07.507Z,9.90
2022-10-22T20:27:44.035Z,11.18
2022-10-22T20:30:21.796Z,9.48
2022-10-22T20:32:56.143Z,8.48
2022-10-22T20:35:31.120Z,7.88
2022-10-22T20:38:05.728Z,6.70
2022-10-22T20:40:40.147Z,10.38
2022-10-22T20:43:15.498Z,8.07
2022-10-22T20:45:51.617Z,11.00
2022-10-22T20:48:28.378Z,7.95
2022-10-22T20:51:06.632Z,7.95
2022-10-22T20:53:48.069Z,8.35
2022-10-22T20:56:31.672Z,5.88
2022-10-22T20:59:12.329Z,5.72
2022-10-22T21:01:52.948Z,8.70
2022-10-22T21:04:28.852Z,7.10
2022-10-22T21:07:04.628Z,5.97
2022-10-22T21:09:42.853Z,6.55
2022-10-22T21:12:18.409Z,6.03
2022-10-22T21:14:53.434Z,7.22
2022-10-22T21:17:30.855Z,5.45
2022-10-22T21:20:05.984Z,7.13
2022-10-22T21:22:41.454Z,10.70
2022-10-22T21:25:17.198Z,13.30
2022-10-22T21:27:54.477Z,17.85
2022-10-22T21:30:29.515Z,16.13
2022-10-22T21:33:07.009Z,12.38
2022-10-22T21:35:42.077Z,17.67
2022-10-22T21:38:17.083Z,12.35
2022-10-22T21:40:55.200Z,11.68
2022-10-22T21:43:30.599Z,12.52
2022-10-22T21:46:13.829Z,10.50
2022-10-22T21:48:51.648Z,8.45
2022-10-22T21:51:28.742Z,14.30
2022-10-22T21:54:04.257Z,10.02
2022-10-22T21:56:40.635Z,16.15
2022-10-22T21:59:16.474Z,11.70
2022-10-22T22:01:51.664Z,10.55
2022-10-22T22:04:28.899Z,9.95
2022-10-22T22:07:05.462Z,10.25
2022-10-22T22:09:41.567Z,5.40
2022-10-22T22:12:16.775Z,5.63
2022-10-22T22:14:52.012Z,5.93
2022-10-22T22:17:27.212Z,5.63
2022-10-22T22:20:04.628Z,4.78
2022-10-22T22:22:39.941Z,4.53
2022-10-22T22:25:15.557Z,3.45
2022-10-22T22:27:50.572Z,6.28
2022-10-22T22:30:25.751Z,4.25
2022-10-22T22:33:02.297Z,2.92
2022-10-22T22:35:40.785Z,3.22
2022-10-22T22:38:17.038Z,3.50
2022-10-22T22:40:52.146Z,2.92
2022-10-22T22:43:28.086Z,4.80
2022-10-22T22:46:07.669Z,4.20
2022-10-22T22:48:43.069Z,4.57
2022-10-22T22:51:21.559Z,3.45
2022-10-22T22:53:56.802Z,4.43
2022-10-22T22:56:33.374Z,5.70
2022-10-22T22:59:10.198Z,4.20
2022-10-22T23:01:47.194Z,5.47
2022-10-22T23:04:25.344Z,3.80
2022-10-22T23:07:02.935Z,4.00
2022-10-22T23:09:38.626Z,4.53
2022-10-22T23:12:14.648Z,10.45
2022-10-22T23:14:50.064Z,9.18
2022-10-22T23:17:25.547Z,13.82
2022-10-22T23:20:25.623Z,10.68
2022-10-22T23:23:07.717Z,7.10
2022-10-22T23:25:43.342Z,11.90
2022-10-22T23:28:20.698Z,14.35
2022-10-22T23:30:57.902Z,13.45
2022-10-22T23:33:36.090Z,10.80
2022-10-22T23:36:10.810Z,7.18
2022-10-22T23:38:46.943Z,8.85
2022-10-22T23:41:21.335Z,6.47
2022-10-22T23:43:56.453Z,8.43
2022-10-22T23:46:34.298Z,9.63
2022-10-22T23:49:09.680Z,10.27
2022-10-22T23:51:44.899Z,6.68
2022-10-22T23:54:21.672Z,6.85
2022-10-22T23:56:57.047Z,9.00
2022-10-22T23:59:32.458Z,9.63
